SI-0018 weather

Podpeč field
Ljubljana, Slovenia

Public forecast

Using degrees Celsius for public forecast. Weather courtesy of forecast.io.

Closest aviation weather report (METAR) to Podpeč field

Closest report is Ljubljana Jože Pučnik Airport, 15.1 nm (28.0 km) N. Retrieved 2020/07/07 23:30 UTC (8 minutes ago):

LJLJ 072330Z VRB01KT 9999 BKN058 13/12 Q1020 NOSIG

Closest aviation forecast (TAF) to Podpeč field

Closest forecast is Ljubljana Jože Pučnik Airport, 15.1 nm (28.0 km) N. Retrieved 2020/07/07 18:04 UTC (6 hours ago):

TAF LJLJ 071700Z 0718/0818 11005KT 9999 FEW050